Impacts METAR Board INFO
IDs:

KLAX - Los Angeles Intl, CA, US

Updated at: 1013 UTC 23 Jan 2018
Potential Impact None Slight Moderate High
Time22/22Z 22/23Z 23/00Z 23/01Z 23/02Z 23/03Z 23/04Z 23/05Z 23/06Z 23/07Z 23/08Z 23/09Z 23/10Z
VIS10 10 10 10 10 10 10 10 10 10 10 10 10
CIG-- -- -- -- -- -- -- -- -- -- -- -- --
CoverCLRCLRCLRFEWCLRCLRCLRCLRCLRCLRCLRCLRCLR
FltCatVFRVFRVFRVFRVFRVFRVFRVFRVFRVFRVFRVFRVFR
WX--------------------------
WDir2602702702602502401009012080040
WSpd10 9 13 10 11 6 4 0 4 3 4 0 3
WGst-- -- -- -- -- -- -- -- -- -- -- -- --
Raw hourly METARs
KLAX 222153Z 26010KT 10SM CLR 18/02 A3018 RMK AO2 SLP219 T01830022
KLAX 222253Z 27009KT 10SM CLR 18/06 A3016 RMK AO2 SLP214 T01780061
KLAX 222353Z 27013KT 10SM CLR 17/07 A3016 RMK AO2 SLP214 T01670067 10194 20161 56009
KLAX 230053Z 26010KT 10SM FEW250 16/06 A3016 RMK AO2 SLP214 T01610056
KLAX 230153Z 25011KT 10SM CLR 16/06 A3016 RMK AO2 SLP212 T01560061
KLAX 230253Z 24006KT 10SM CLR 16/08 A3016 RMK AO2 SLP212 T01560078 56003
KLAX 230353Z 01004KT 10SM CLR 14/08 A3017 RMK AO2 SLP214 T01440083
KLAX 230453Z 00000KT 10SM CLR 14/06 A3017 RMK AO2 SLP215 T01440056
KLAX 230553Z 09004KT 10SM CLR 13/05 A3017 RMK AO2 SLP215 T01330050 10172 20133 51004
KLAX 230653Z 12003KT 10SM CLR 12/04 A3017 RMK AO2 SLP214 T01220044
KLAX 230753Z 08004KT 10SM CLR 12/03 A3017 RMK AO2 SLP213 T01170028 401940078
KLAX 230853Z 00000KT 10SM CLR 12/02 A3016 RMK AO2 SLP210 T01170022 58005
KLAX 230953Z 04003KT 10SM CLR 11/01 A3016 RMK AO2 SLP210 T01060006